Time;durP1;ratioP1;P1;durP2;ratioP2;P2;SDS_P1;SDS_P2;PMS_P1;PMS_P2;Temp;Humidity;BMP_temperature;BMP_pressure;BME280_temperature;BME280_humidity;BME280_pressure;Samples;Min_cycle;Max_cycle;Signal;HPM_P1;HPM_P2
2022/06/06 00:01:49;;;;;;;34.80;32.00;;;;;;;20.16;50.89;101289.03;5102228;28;22083;-77
2022/06/06 00:04:16;;;;;;;35.13;31.42;;;;;;;20.16;51.08;101285.44;5109707;28;20147;-77
2022/06/06 00:06:42;;;;;;;31.90;29.50;;;;;;;20.16;50.67;101296.41;5097020;28;20031;-80
2022/06/06 00:09:09;;;;;;;35.22;31.92;;;;;;;20.16;51.13;101296.41;5105248;28;20452;-78
2022/06/06 00:11:35;;;;;;;36.05;33.15;;;;;;;20.14;51.20;101288.50;5110934;28;20039;-77
2022/06/06 00:14:02;;;;;;;34.25;31.50;;;;;;;20.14;50.67;101291.22;5106264;28;20036;-77
2022/06/06 00:16:27;;;;;;;37.10;33.83;;;;;;;20.14;50.70;101284.94;5098132;28;20153;-76
2022/06/06 00:18:53;;;;;;;37.88;34.47;;;;;;;20.12;50.83;101279.75;5102279;28;20387;-76
2022/06/06 00:21:19;;;;;;;34.85;32.05;;;;;;;20.12;51.04;101281.66;5101103;28;20463;-76
2022/06/06 00:23:44;;;;;;;36.60;33.30;;;;;;;20.12;50.66;101282.47;5097647;28;20050;-77
2022/06/06 00:26:13;;;;;;;36.38;33.58;;;;;;;20.10;50.83;101277.28;5107261;28;20035;-76
2022/06/06 00:28:40;;;;;;;38.17;34.78;;;;;;;20.10;51.03;101279.22;5109484;28;20036;-75
2022/06/06 00:36:35;;;;;;;35.95;32.75;;;;;;;20.07;51.01;101266.09;5100245;28;20043;-77
2022/06/06 00:39:03;;;;;;;37.63;34.33;;;;;;;20.07;51.08;101266.09;5103465;28;20105;-77
2022/06/06 00:41:28;;;;;;;36.83;33.67;;;;;;;20.05;51.18;101263.63;5094366;28;20437;-75
2022/06/06 00:44:15;;;;;;;37.95;34.80;;;;;;;20.05;51.19;101260.06;5099189;28;20032;-76
2022/06/06 00:46:44;;;;;;;35.20;31.88;;;;;;;20.03;50.87;101259.56;5106084;28;20430;-75
2022/06/06 00:49:18;;;;;;;39.17;35.25;;;;;;;20.03;51.33;101262.28;5090815;28;20043;-75
2022/06/06 00:51:44;;;;;;;35.17;31.90;;;;;;;20.02;51.11;101261.47;5105425;28;20032;-76
2022/06/06 00:54:10;;;;;;;38.80;34.97;;;;;;;20.01;51.28;101253.56;5098358;28;20464;-78
2022/06/06 00:56:47;;;;;;;35.17;32.47;;;;;;;20.01;51.26;101259.88;5111344;28;20043;-75
2022/06/06 00:59:17;;;;;;;35.70;32.78;;;;;;;19.99;51.27;101253.03;5108016;28;20032;-75
2022/06/06 01:01:43;;;;;;;37.47;34.15;;;;;;;19.99;50.96;101253.03;5107069;28;20391;-76
2022/06/06 01:04:12;;;;;;;36.53;33.22;;;;;;;19.98;51.00;101245.91;5108891;28;20035;-75
2022/06/06 01:06:41;;;;;;;36.28;33.20;;;;;;;19.98;51.00;101245.91;5110448;28;20475;-76
2022/06/06 01:09:07;;;;;;;37.70;34.55;;;;;;;19.96;51.31;101246.22;5107234;28;20028;-76
2022/06/06 01:11:39;;;;;;;35.47;32.72;;;;;;;19.96;51.04;101246.22;5099358;28;20042;-75
2022/06/06 01:14:07;;;;;;;38.58;35.13;;;;;;;19.95;51.16;101239.09;5110305;28;20092;-76
2022/06/06 01:16:44;;;;;;;37.10;33.60;;;;;;;19.95;50.93;101243.75;5127286;27;20102;-75
2022/06/06 01:19:30;;;;;;;38.47;34.30;;;;;;;19.93;51.26;101246.78;5113764;28;20092;-75
2022/06/06 01:22:06;;;;;;;39.60;35.85;;;;;;;19.93;51.32;101241.28;5107341;28;20498;-76
2022/06/06 01:24:43;;;;;;;38.28;34.72;;;;;;;19.91;51.09;101240.81;5113006;28;20103;-75
2022/06/06 01:27:11;;;;;;;38.50;34.88;;;;;;;19.89;50.98;101235.59;5099808;28;20023;-75
2022/06/06 01:29:43;;;;;;;37.28;33.75;;;;;;;19.89;50.96;101243.00;5095193;28;20111;-75
2022/06/06 01:32:14;;;;;;;40.83;36.63;;;;;;;19.88;51.24;101242.19;5109397;28;20038;-75
2022/06/06 01:34:42;;;;;;;37.17;33.72;;;;;;;19.86;51.44;101241.66;5108289;28;20077;-77
2022/06/06 01:37:25;;;;;;;40.78;36.60;;;;;;;19.87;51.46;101254.25;5101300;28;20039;-75
2022/06/06 01:39:51;;;;;;;35.70;32.83;;;;;;;19.84;51.31;101243.06;5106197;28;20039;-78
2022/06/06 01:42:30;;;;;;;38.70;35.50;;;;;;;19.84;51.26;101252.09;5103919;28;20388;-76
2022/06/06 01:45:14;;;;;;;;;;;;;;;19.82;51.27;101242.53;5099829;28;20032;-76
2022/06/06 01:47:46;;;;;;;36.95;33.47;;;;;;;19.80;51.61;101239.28;5111439;28;20460;-76
2022/06/06 01:50:12;;;;;;;37.95;34.42;;;;;;;19.79;51.15;101248.63;5114154;28;20451;-75
2022/06/06 01:52:54;;;;;;;38.28;34.97;;;;;;;19.77;51.58;101243.41;5111111;28;20039;-75
2022/06/06 01:55:21;;;;;;;33.65;31.15;;;;;;;19.75;51.33;101251.09;5113308;28;20110;-75
2022/06/06 01:57:48;;;;;;;37.58;34.17;;;;;;;19.74;51.52;101249.50;5113060;28;20085;-76
2022/06/06 02:00:15;;;;;;;36.53;33.17;;;;;;;19.74;51.53;101254.16;5097670;28;20028;-75
2022/06/06 02:02:43;;;;;;;37.70;33.85;;;;;;;19.72;51.95;101237.19;5105104;28;20032;-76
2022/06/06 02:05:12;;;;;;;37.20;34.03;;;;;;;19.72;51.73;101242.66;5097376;28;20088;-75
2022/06/06 02:07:39;;;;;;;36.38;33.03;;;;;;;19.72;51.65;101239.94;5107656;28;20396;-75
2022/06/06 02:10:08;;;;;;;37.35;34.00;;;;;;;19.72;51.99;101235.25;5112792;28;20032;-75
2022/06/06 02:12:34;;;;;;;39.58;36.05;;;;;;;19.71;52.07;101230.09;5094500;28;20050;-75
2022/06/06 02:14:59;;;;;;;38.58;35.20;;;;;;;19.70;51.88;101225.69;5109821;28;20044;-76
2022/06/06 02:17:24;;;;;;;36.05;32.65;;;;;;;19.68;51.96;101228.75;5114138;28;20031;-76
2022/06/06 02:19:50;;;;;;;39.85;36.35;;;;;;;19.68;51.96;101226.00;5108315;28;20051;-76
2022/06/06 02:22:15;;;;;;;35.88;32.92;;;;;;;19.66;51.61;101225.44;5111799;28;20816;-75
2022/06/06 02:24:40;;;;;;;38.88;35.53;;;;;;;19.66;51.77;101234.47;5112735;28;20028;-75
2022/06/06 02:27:06;;;;;;;37.85;34.05;;;;;;;19.65;51.72;101242.97;5094454;28;20035;-75
2022/06/06 02:29:32;;;;;;;35.72;32.63;;;;;;;19.65;51.48;101234.75;5111229;28;20035;-74
2022/06/06 02:31:58;;;;;;;38.10;34.55;;;;;;;19.64;51.65;101236.69;5105199;27;20464;-78
2022/06/06 02:34:24;;;;;;;38.90;35.35;;;;;;;19.65;51.58;101237.50;5095541;28;20061;-75
2022/06/06 02:36:49;;;;;;;37.47;33.88;;;;;;;19.63;51.66;101235.06;5106811;28;20035;-75
2022/06/06 02:39:14;;;;;;;38.47;35.17;;;;;;;19.63;51.50;101235.06;5108921;28;20032;-75
2022/06/06 02:41:41;;;;;;;38.45;34.88;;;;;;;19.63;51.78;101226.00;5106814;28;20387;-77
2022/06/06 02:44:07;;;;;;;37.10;33.95;;;;;;;19.61;51.64;101229.06;5110235;28;20047;-75
2022/06/06 02:46:32;;;;;;;39.20;35.35;;;;;;;19.60;52.02;101232.06;5113600;28;20487;-75
2022/06/06 02:48:58;;;;;;;44.42;37.22;;;;;;;19.58;52.04;101234.28;5102859;28;20031;-75
2022/06/06 02:51:23;;;;;;;37.58;33.95;;;;;;;19.57;52.17;101232.66;5111810;28;20165;-75
2022/06/06 02:53:50;;;;;;;35.90;32.55;;;;;;;19.55;52.21;101227.47;5111071;28;20046;-75
2022/06/06 02:56:15;;;;;;;41.25;37.22;;;;;;;19.55;52.15;101223.91;5112853;28;20027;-75
2022/06/06 02:58:41;;;;;;;36.53;33.05;;;;;;;19.54;52.09;101219.56;5109113;28;20057;-76
2022/06/06 03:01:09;;;;;;;42.17;38.25;;;;;;;19.55;52.22;101223.91;5098285;28;20467;-76
2022/06/06 03:03:36;;;;;;;39.08;35.38;;;;;;;19.53;51.79;101223.38;5113512;28;20019;-75
2022/06/06 03:06:04;;;;;;;38.08;34.38;;;;;;;19.54;52.25;101225.03;5109872;28;20061;-77
2022/06/06 03:08:52;;;;;;;38.35;33.55;;;;;;;19.52;52.21;101232.72;5104460;28;20035;-75
2022/06/06 03:11:17;;;;;;;40.70;36.60;;;;;;;19.50;51.96;101227.53;5112637;28;20156;-75
2022/06/06 03:14:10;;;;;;;37.70;33.60;;;;;;;19.51;52.22;101231.09;5109196;28;20114;-75
2022/06/06 03:22:43;;;;;;;38.90;34.67;;;;;;;19.45;52.28;101236.63;5092880;28;20490;-76
2022/06/06 03:25:30;;;;;;;37.45;34.17;;;;;;;19.45;52.32;101233.91;5110617;28;20173;-75
2022/06/06 03:28:01;;;;;;;36.00;32.55;;;;;;;19.44;52.38;101243.19;5109859;28;20102;-75
2022/06/06 03:30:42;;;;;;;37.03;33.40;;;;;;;19.43;51.84;101240.78;5107745;28;20028;-75
2022/06/06 03:33:14;;;;;;;37.28;34.13;;;;;;;19.42;52.13;101245.41;5103104;28;20039;-75
2022/06/06 03:35:42;;;;;;;33.55;30.70;;;;;;;19.41;51.92;101245.72;5105139;28;20031;-75
2022/06/06 03:38:19;;;;;;;40.58;36.53;;;;;;;19.41;52.19;101249.28;5109180;28;20038;-78
2022/06/06 03:41:04;;;;;;;36.85;33.95;;;;;;;19.39;52.19;101247.94;5103598;28;20411;-75
2022/06/06 03:43:57;;;;;;;36.60;33.05;;;;;;;19.38;52.23;101249.03;5110082;28;20050;-75
2022/06/06 03:47:03;;;;;;;36.45;33.33;;;;;;;19.37;52.35;101255.63;5093109;28;20561;-75
2022/06/06 03:49:59;;;;;;;35.75;32.22;;;;;;;19.35;52.21;101252.34;5099653;28;20031;-76
2022/06/06 03:52:36;;;;;;;35.75;32.58;;;;;;;19.33;52.11;101240.88;5098253;28;20028;-75
2022/06/06 03:55:34;;;;;;;35.95;32.38;;;;;;;19.32;52.22;101247.44;5107419;28;20230;-75
2022/06/06 03:58:03;;;;;;;35.35;32.63;;;;;;;19.31;51.86;101257.59;5111817;28;20027;-76
2022/06/06 04:00:29;;;;;;;35.10;31.52;;;;;;;19.28;51.94;101255.44;5104684;28;20031;-76
2022/06/06 04:02:56;;;;;;;36.60;33.50;;;;;;;19.27;52.09;101256.53;5103253;28;20043;-75
2022/06/06 04:05:24;;;;;;;35.15;32.10;;;;;;;19.28;51.84;101260.06;5102202;28;20070;-75
2022/06/06 04:07:50;;;;;;;37.45;33.95;;;;;;;19.27;52.22;101259.25;5109882;28;20039;-76
2022/06/06 04:10:16;;;;;;;34.63;31.77;;;;;;;19.25;51.95;101269.69;5107368;28;20433;-76
2022/06/06 04:13:12;;;;;;;34.03;31.30;;;;;;;19.22;51.98;101273.81;5111661;28;20220;-76
2022/06/06 04:16:05;;;;;;;34.63;31.35;;;;;;;19.19;52.19;101266.19;5091843;28;20061;-76
2022/06/06 04:18:52;;;;;;;33.67;30.58;;;;;;;19.18;51.73;101272.78;5101021;28;20031;-76
2022/06/06 04:21:32;;;;;;;33.63;30.92;;;;;;;19.17;51.60;101264.84;5121404;27;20491;-75
2022/06/06 04:24:12;;;;;;;30.20;28.30;;;;;;;19.15;51.74;101269.78;5112016;28;20036;-75
2022/06/06 04:26:52;;;;;;;33.53;30.90;;;;;;;19.15;51.75;101269.78;5111295;28;20031;-75
2022/06/06 04:29:27;;;;;;;31.10;28.95;;;;;;;19.14;51.98;101279.91;5104538;28;20111;-75
2022/06/06 04:32:10;;;;;;;34.05;31.45;;;;;;;19.13;51.60;101272.00;5107901;28;20046;-75
2022/06/06 04:34:57;;;;;;;32.70;29.90;;;;;;;19.11;51.85;101268.75;5109132;28;20031;-76
2022/06/06 04:37:43;;;;;;;35.65;32.40;;;;;;;19.10;52.01;101275.31;5111054;28;20539;-76
2022/06/06 04:40:20;;;;;;;32.97;30.23;;;;;;;19.09;51.60;101279.16;5098390;28;20379;-75
2022/06/06 04:42:58;;;;;;;32.88;30.38;;;;;;;19.07;51.67;101284.91;5106645;28;20028;-76
2022/06/06 04:45:50;;;;;;;34.00;30.77;;;;;;;19.05;51.79;101281.66;5107820;28;20471;-76
2022/06/06 04:48:18;;;;;;;30.77;28.67;;;;;;;19.03;51.84;101276.47;5109868;28;20035;-78
2022/06/06 04:50:45;;;;;;;31.50;28.92;;;;;;;19.01;51.58;101270.44;5107411;28;20063;-75
2022/06/06 04:53:16;;;;;;;33.78;31.23;;;;;;;19.01;51.84;101261.44;5111390;28;20028;-75
2022/06/06 04:55:42;;;;;;;34.33;31.05;;;;;;;19.00;51.93;101271.56;5111122;28;20391;-75
2022/06/06 04:58:09;;;;;;;32.22;29.70;;;;;;;18.99;51.62;101263.63;5111434;28;20028;-75
2022/06/06 05:00:36;;;;;;;33.58;31.10;;;;;;;18.98;51.77;101265.56;5107723;28;20043;-76
2022/06/06 05:03:03;;;;;;;32.00;29.52;;;;;;;18.97;51.63;101252.94;5110905;28;20035;-75
2022/06/06 05:05:41;;;;;;;32.65;30.08;;;;;;;18.96;51.81;101265.00;5104476;28;20055;-76
2022/06/06 05:08:24;;;;;;;32.35;29.50;;;;;;;18.96;52.20;101265.00;5090308;28;20472;-76
2022/06/06 05:10:55;;;;;;;33.33;30.85;;;;;;;18.96;51.96;101261.47;5102435;28;20066;-76
2022/06/06 05:14:02;;;;;;;30.05;28.23;;;;;;;18.96;52.19;101261.47;5111598;28;20034;-76
2022/06/06 05:17:05;;;;;;;33.70;31.10;;;;;;;18.95;52.38;101268.03;5110963;28;20097;-76
2022/06/06 05:19:49;;;;;;;33.53;30.85;;;;;;;18.94;52.18;101267.22;5108446;28;20122;-75
2022/06/06 05:22:41;;;;;;;30.45;28.45;;;;;;;18.93;52.30;101270.25;5107538;28;20114;-76
2022/06/06 05:25:35;;;;;;;29.30;27.58;;;;;;;18.92;52.34;101268.59;5102379;28;20039;-75
2022/06/06 05:28:27;;;;;;;30.73;28.35;;;;;;;18.92;52.27;101265.88;5104290;28;20076;-76
2022/06/06 05:31:17;;;;;;;31.65;29.13;;;;;;;18.91;52.44;101270.53;5067010;28;20053;-75
2022/06/06 05:33:53;;;;;;;28.08;26.20;;;;;;;18.90;52.39;101266.19;5110534;28;20495;-76
2022/06/06 05:36:21;;;;;;;27.45;25.83;;;;;;;18.89;52.36;101267.25;5100385;28;20031;-76
2022/06/06 05:39:08;;;;;;;29.45;27.33;;;;;;;18.90;52.46;101281.75;5109064;28;20076;-76
2022/06/06 05:42:09;;;;;;;29.38;27.40;;;;;;;18.89;52.14;101278.22;5107571;28;20036;-75
2022/06/06 05:44:37;;;;;;;31.23;28.88;;;;;;;18.90;52.09;101279.03;5105822;28;20035;-76
2022/06/06 05:47:28;;;;;;;28.45;26.35;;;;;;;18.89;52.15;101269.19;5104503;28;20042;-75
2022/06/06 05:50:19;;;;;;;30.70;28.65;;;;;;;18.89;52.21;101272.72;5096577;28;20039;-76
2022/06/06 05:53:15;;;;;;;29.23;27.30;;;;;;;18.90;51.92;101276.28;5107679;28;20126;-75
2022/06/06 05:55:54;;;;;;;31.98;29.52;;;;;;;18.91;52.06;101273.28;5111583;28;20066;-75
2022/06/06 05:58:37;;;;;;;29.02;27.23;;;;;;;18.93;51.80;101273.81;5095452;28;20081;-76
2022/06/06 06:01:21;;;;;;;30.35;27.92;;;;;;;18.95;51.98;101266.13;5096398;28;20117;-76
2022/06/06 06:04:00;;;;;;;27.92;26.08;;;;;;;18.98;52.03;101278.44;5110450;28;20372;-75
2022/06/06 06:06:33;;;;;;;;;;;;;;;18.98;51.66;101270.22;5114267;28;20403;-79
2022/06/06 06:09:26;;;;;;;29.73;27.48;;;;;;;18.99;52.00;101267.19;5100970;28;20352;-75
2022/06/06 06:12:13;;;;;;;26.25;24.83;;;;;;;19.01;51.60;101270.44;5109367;28;20768;-75
2022/06/06 06:14:58;;;;;;;29.25;27.17;;;;;;;19.03;51.53;101273.72;5092175;28;20484;-75
2022/06/06 06:17:26;;;;;;;28.77;26.60;;;;;;;19.06;51.44;101277.00;5066116;28;20040;-75
2022/06/06 06:20:10;;;;;;;28.02;26.48;;;;;;;19.10;51.64;101286.25;5107172;28;20122;-76
2022/06/06 06:22:40;;;;;;;28.55;26.75;;;;;;;19.11;51.96;101287.91;5099748;28;20028;-76
2022/06/06 06:25:08;;;;;;;27.92;26.30;;;;;;;19.14;51.62;101304.56;5113721;28;20076;-75
2022/06/06 06:27:34;;;;;;;27.63;26.13;;;;;;;19.16;51.98;101298.81;5101193;27;20024;-75
2022/06/06 06:30:04;;;;;;;27.67;26.08;;;;;;;19.17;51.70;101311.38;5103755;28;20027;-75
2022/06/06 06:33:15;;;;;;;30.30;28.38;;;;;;;19.18;51.73;101311.13;5109387;28;20024;-75
2022/06/06 06:36:00;;;;;;;26.98;25.55;;;;;;;19.20;51.81;101313.56;5027378;28;20454;-75
2022/06/06 06:38:54;;;;;;;30.42;28.08;;;;;;;19.20;51.67;101306.19;5030026;28;20037;-76
2022/06/06 06:41:31;;;;;;;27.02;25.63;;;;;;;19.23;51.79;101313.81;5080835;28;20072;-75
2022/06/06 06:44:08;;;;;;;29.30;27.75;;;;;;;19.24;52.00;101304.47;5113059;28;20475;-76
2022/06/06 06:46:40;;;;;;;28.35;26.67;;;;;;;19.29;51.56;101305.56;5103333;28;20027;-75
2022/06/06 06:49:19;;;;;;;27.88;26.23;;;;;;;19.32;51.66;101318.66;5111466;28;20474;-75
2022/06/06 06:51:57;;;;;;;29.30;27.42;;;;;;;19.34;51.75;101314.53;5109627;28;20069;-77
2022/06/06 06:54:37;;;;;;;27.10;25.70;;;;;;;19.37;51.98;101315.88;5101518;28;20444;-75
2022/06/06 06:57:31;;;;;;;27.42;25.83;;;;;;;19.39;51.89;101311.75;5107835;28;20380;-75
2022/06/06 07:00:13;;;;;;;28.83;27.33;;;;;;;19.42;51.87;101329.53;5098095;28;20031;-75
2022/06/06 07:09:54;;;;;;;27.25;25.63;;;;;;;19.47;51.60;101310.31;5058296;28;20461;-76
2022/06/06 07:12:19;;;;;;;27.17;25.67;;;;;;;19.50;51.74;101323.41;5110166;28;20061;-76
2022/06/06 07:15:06;;;;;;;29.05;27.15;;;;;;;19.52;51.56;101318.47;5112356;28;20023;-77
2022/06/06 07:17:38;;;;;;;26.45;25.05;;;;;;;19.54;51.80;101331.91;5109632;28;20059;-78
2022/06/06 07:20:07;;;;;;;27.17;25.77;;;;;;;19.57;51.55;101328.56;5102663;28;20100;-77
2022/06/06 07:25:45;;;;;;;28.27;26.67;;;;;;;19.61;51.37;101326.91;5069023;28;20047;-77
2022/06/06 07:28:18;;;;;;;27.38;25.98;;;;;;;19.64;51.55;101332.59;5089890;28;20032;-77
2022/06/06 07:30:52;;;;;;;29.08;27.27;;;;;;;19.68;51.42;101327.41;5102781;28;20479;-77
2022/06/06 07:33:29;;;;;;;29.23;27.42;;;;;;;19.71;51.44;101328.75;5112471;28;20027;-77
2022/06/06 07:36:29;;;;;;;29.10;27.58;;;;;;;19.75;51.45;101332.53;5112735;28;20116;-77
2022/06/06 07:38:54;;;;;;;28.33;26.63;;;;;;;19.79;51.54;101339.09;5112132;28;20027;-77
2022/06/06 07:41:44;;;;;;;28.45;26.85;;;;;;;19.83;51.66;101340.97;5107031;28;20034;-77
2022/06/06 07:44:49;;;;;;;28.92;27.35;;;;;;;19.88;51.13;101348.28;5112516;28;20050;-78
2022/06/06 07:47:36;;;;;;;28.70;26.95;;;;;;;19.91;51.27;101344.16;5097804;28;20081;-77
2022/06/06 07:50:10;;;;;;;27.48;26.08;;;;;;;19.92;51.47;101345.78;5102428;28;20036;-77
2022/06/06 07:52:55;;;;;;;28.73;27.05;;;;;;;19.94;51.00;101338.09;5109033;28;20027;-77
2022/06/06 07:55:29;;;;;;;29.08;27.58;;;;;;;19.95;50.89;101339.72;5102604;28;20102;-77
2022/06/06 07:58:04;;;;;;;30.75;29.15;;;;;;;19.97;50.98;101346.53;5110716;28;20110;-77
2022/06/06 08:00:29;;;;;;;29.88;28.27;;;;;;;19.97;50.84;101341.06;5098192;28;20036;-77
2022/06/06 08:02:57;;;;;;;30.92;29.10;;;;;;;20.00;50.86;101342.41;5110427;28;20036;-77
2022/06/06 08:05:25;;;;;;;29.00;27.42;;;;;;;20.03;51.33;101341.81;5093794;28;20040;-78
2022/06/06 08:08:07;;;;;;;29.35;27.75;;;;;;;20.05;50.86;101334.13;5098568;28;20023;-76
2022/06/06 08:10:43;;;;;;;28.35;26.92;;;;;;;20.08;51.25;101330.78;5106405;28;20034;-76
2022/06/06 08:13:57;;;;;;;28.77;27.20;;;;;;;20.10;50.59;101331.31;5111119;28;20024;-78
2022/06/06 08:16:33;;;;;;;28.25;26.67;;;;;;;20.12;50.62;101336.53;5086877;28;20765;-78
2022/06/06 08:19:10;;;;;;;29.10;27.50;;;;;;;20.13;50.55;101343.63;5094732;28;20036;-76
2022/06/06 08:21:46;;;;;;;28.98;27.48;;;;;;;20.15;50.59;101327.69;5108384;28;20109;-76
2022/06/06 08:24:24;;;;;;;29.05;27.45;;;;;;;20.17;50.63;101329.03;5105996;28;20110;-77
2022/06/06 08:26:52;;;;;;;30.05;28.15;;;;;;;20.19;50.75;101326.81;5111028;28;20027;-75
2022/06/06 08:29:18;;;;;;;28.02;26.63;;;;;;;20.21;50.36;101313.63;5104225;28;20175;-76
2022/06/06 08:31:44;;;;;;;30.98;29.17;;;;;;;20.23;50.42;101321.56;5099298;28;20123;-78
2022/06/06 08:34:11;;;;;;;30.17;28.58;;;;;;;20.25;50.69;101314.66;5097985;28;20486;-76
2022/06/06 08:36:57;;;;;;;31.95;29.30;;;;;;;20.29;50.23;101303.94;5109948;28;20476;-77
2022/06/06 08:39:51;;;;;;;31.38;29.77;;;;;;;20.33;50.41;101307.72;5094515;28;20387;-77
2022/06/06 08:42:54;;;;;;;30.15;28.55;;;;;;;20.35;49.99;101302.75;5100534;28;20044;-77
2022/06/06 08:45:30;;;;;;;28.50;27.10;;;;;;;20.38;50.19;101309.56;5110454;28;20463;-77
2022/06/06 08:48:52;;;;;;;32.17;30.25;;;;;;;20.41;50.00;101318.06;5107979;28;20096;-77
2022/06/06 08:51:28;;;;;;;29.83;28.15;;;;;;;20.44;50.25;101317.44;5026994;28;20044;-77
2022/06/06 08:54:21;;;;;;;30.80;29.10;;;;;;;20.49;50.22;101319.31;5090099;28;20047;-77
2022/06/06 08:57:07;;;;;;;30.98;29.33;;;;;;;20.54;49.87;101316.50;5102415;28;20038;-79
2022/06/06 09:00:07;;;;;;;30.65;29.05;;;;;;;20.58;50.19;101312.06;5111406;28;20031;-77
2022/06/06 09:02:54;;;;;;;29.67;28.15;;;;;;;20.62;50.01;101299.38;5104319;28;20027;-77
2022/06/06 09:05:47;;;;;;;29.90;28.35;;;;;;;20.67;50.14;101310.28;5105954;28;20063;-78
2022/06/06 09:08:38;;;;;;;31.65;29.70;;;;;;;20.73;50.02;101303.59;5108742;28;20032;-77
2022/06/06 09:11:40;;;;;;;31.88;30.17;;;;;;;20.79;50.06;101318.09;5094334;28;20043;-77
2022/06/06 09:14:23;;;;;;;30.50;28.80;;;;;;;20.84;49.79;101311.69;5093889;28;20081;-78
2022/06/06 09:17:02;;;;;;;29.63;28.10;;;;;;;20.87;49.90;101309.19;5106157;28;20110;-79
2022/06/06 09:19:59;;;;;;;29.48;27.88;;;;;;;20.92;49.44;101305.53;5096300;28;20052;-78
2022/06/06 09:22:50;;;;;;;30.17;28.67;;;;;;;20.98;48.94;101300.78;5119043;27;20483;-77
2022/06/06 09:25:35;;;;;;;32.00;30.30;;;;;;;21.00;49.06;101307.59;5101045;28;20419;-79
2022/06/06 09:28:30;;;;;;;32.92;31.13;;;;;;;21.04;49.57;101294.91;5103531;27;20532;-80
2022/06/06 09:31:36;;;;;;;32.90;30.92;;;;;;;21.10;49.39;101295.63;5085356;28;20079;-79
2022/06/06 09:34:18;;;;;;;33.08;31.13;;;;;;;21.15;48.98;101282.63;5105370;28;20034;-77
2022/06/06 09:37:27;;;;;;;32.70;30.90;;;;;;;21.21;49.32;101297.09;5108866;28;20092;-76
2022/06/06 09:40:08;;;;;;;33.58;31.35;;;;;;;21.27;49.18;101295.06;5099083;27;20104;-79
2022/06/06 09:43:11;;;;;;;31.83;30.13;;;;;;;21.31;48.99;101294.16;5095417;28;20150;-80
2022/06/06 09:45:54;;;;;;;32.05;30.23;;;;;;;21.35;49.05;101277.91;5117851;27;20388;-76
2022/06/06 09:48:58;;;;;;;31.15;29.65;;;;;;;21.38;48.51;101267.13;5096301;28;20047;-76
2022/06/06 09:51:41;;;;;;;32.95;30.95;;;;;;;21.42;48.66;101264.59;5100803;28;20032;-77
2022/06/06 10:00:27;;;;;;;32.47;30.88;;;;;;;21.54;48.23;101277.84;5103976;28;20085;-78
2022/06/06 10:03:14;;;;;;;32.92;30.90;;;;;;;21.56;48.44;101272.84;5106390;28;20353;-75
2022/06/06 10:05:59;;;;;;;33.42;31.52;;;;;;;21.60;48.04;101269.19;5105194;27;20089;-74
2022/06/06 10:08:48;;;;;;;33.22;31.48;;;;;;;21.64;48.24;101265.84;5112187;28;20539;-75
2022/06/06 10:11:48;;;;;;;32.30;30.70;;;;;;;21.66;48.15;101266.34;5095896;28;20474;-75
2022/06/06 10:14:35;;;;;;;33.25;31.65;;;;;;;21.69;48.07;101272.03;5109454;27;20475;-75
2022/06/06 10:17:22;;;;;;;33.50;31.80;;;;;;;21.71;47.81;101269.00;5099943;28;20470;-78
2022/06/06 10:20:06;;;;;;;34.05;32.15;;;;;;;21.73;47.80;101264.81;5105526;28;20047;-79
2022/06/06 10:23:10;;;;;;;31.42;29.92;;;;;;;21.74;47.70;101274.69;5097150;28;20035;-70
2022/06/06 10:25:47;;;;;;;31.42;29.92;;;;;;;21.78;47.22;101270.22;5036841;28;20037;-76
2022/06/06 10:28:21;;;;;;;32.92;30.83;;;;;;;21.81;47.22;101268.81;5092302;28;20401;-77
2022/06/06 10:31:13;;;;;;;33.20;31.60;;;;;;;21.84;47.24;101270.94;5105583;28;20383;-77
2022/06/06 10:34:09;;;;;;;34.75;32.85;;;;;;;21.89;47.36;101264.53;5105380;28;20102;-77
2022/06/06 10:36:50;;;;;;;32.28;30.67;;;;;;;21.92;46.72;101256.44;5101732;28;20489;-77
2022/06/06 10:39:30;;;;;;;32.90;31.20;;;;;;;21.95;47.25;101257.81;5101873;28;20070;-82
2022/06/06 10:42:07;;;;;;;33.35;31.35;;;;;;;21.98;47.23;101252.50;5094182;28;20105;-79
2022/06/06 10:44:48;;;;;;;34.58;32.83;;;;;;;22.01;47.41;101246.38;5102210;27;20377;-78
2022/06/06 10:47:20;;;;;;;35.60;33.80;;;;;;;22.04;47.21;101256.75;5095855;27;20036;-77
2022/06/06 10:50:11;;;;;;;32.92;31.25;;;;;;;22.08;46.79;101248.72;5100218;28;20460;-78
2022/06/06 10:52:55;;;;;;;35.17;33.10;;;;;;;22.11;46.89;101250.84;5103574;28;20520;-76
2022/06/06 10:55:38;;;;;;;32.13;30.42;;;;;;;22.14;47.23;101255.72;5100309;28;20114;-78
2022/06/06 10:58:50;;;;;;;35.85;34.05;;;;;;;22.17;46.73;101249.59;5095863;28;20031;-77
2022/06/06 11:01:15;;;;;;;32.78;31.08;;;;;;;22.20;46.79;101249.03;5098223;28;20031;-78
2022/06/06 11:03:52;;;;;;;35.72;33.83;;;;;;;22.24;47.10;101243.72;5107427;28;20019;-78
2022/06/06 11:06:46;;;;;;;34.58;32.78;;;;;;;22.28;46.80;101241.97;5105905;28;20031;-78
2022/06/06 11:09:11;;;;;;;34.53;32.83;;;;;;;22.29;46.42;101238.09;5096950;28;20062;-77
2022/06/06 11:11:48;;;;;;;34.70;33.00;;;;;;;22.31;46.74;101241.34;5107208;28;20023;-78
2022/06/06 11:14:40;;;;;;;36.22;34.30;;;;;;;22.35;46.27;101236.88;5090671;28;20043;-78
2022/06/06 11:17:36;;;;;;;35.10;33.30;;;;;;;22.39;46.28;101237.06;5099414;28;20032;-79
2022/06/06 11:20:20;;;;;;;32.70;31.02;;;;;;;22.39;46.22;101237.88;5091186;28;20460;-78
2022/06/06 11:23:28;;;;;;;37.58;35.78;;;;;;;22.40;46.13;101244.19;5104753;28;20038;-80
2022/06/06 11:26:38;;;;;;;35.60;33.80;;;;;;;22.40;45.09;101252.44;5101755;28;20471;-72
2022/06/06 11:29:16;;;;;;;36.05;34.25;;;;;;;22.36;45.09;101240.44;5096648;28;20035;-78
2022/06/06 11:31:54;;;;;;;34.63;32.70;;;;;;;22.37;45.48;101250.31;5093400;28;20085;-80
2022/06/06 11:34:53;;;;;;;34.38;32.67;;;;;;;22.39;45.52;101248.88;5089101;28;20266;-78
2022/06/06 11:37:57;;;;;;;35.15;32.78;;;;;;;22.41;45.22;101254.88;5099406;28;20608;-78
2022/06/06 11:40:38;;;;;;;34.17;32.47;;;;;;;22.43;45.66;101269.16;5014329;28;20552;-79
2022/06/06 11:43:32;;;;;;;35.17;32.83;;;;;;;22.45;45.52;101249.56;5087727;27;20098;-77
2022/06/06 11:46:23;;;;;;;35.65;33.90;;;;;;;22.49;45.11;101256.09;5102911;28;20480;-77
2022/06/06 11:49:17;;;;;;;36.20;34.30;;;;;;;22.52;45.68;101276.66;5092039;28;20089;-78
2022/06/06 11:52:19;;;;;;;34.03;32.38;;;;;;;22.55;45.59;101295.31;5104638;28;20119;-78
2022/06/06 11:55:24;;;;;;;34.50;32.70;;;;;;;22.54;45.67;101286.25;5102821;28;20050;-77
2022/06/06 11:58:08;;;;;;;35.47;33.35;;;;;;;22.54;46.80;101266.16;5101855;28;20462;-77
2022/06/06 12:00:52;;;;;;;34.65;32.92;;;;;;;22.55;46.98;101251.25;5106554;28;20112;-80
2022/06/06 12:03:48;;;;;;;35.97;34.05;;;;;;;22.58;47.78;101258.91;5098289;28;20169;-78
2022/06/06 12:06:51;;;;;;;34.35;32.65;;;;;;;22.61;47.26;101250.03;5100164;28;20031;-77
2022/06/06 12:09:21;;;;;;;36.65;34.17;;;;;;;22.63;47.62;101253.31;5091080;28;20054;-78
2022/06/06 12:12:05;;;;;;;36.70;34.63;;;;;;;22.64;47.96;101241.97;5097015;28;20032;-78
2022/06/06 12:14:46;;;;;;;35.33;33.47;;;;;;;22.65;47.61;101243.59;5104268;28;20063;-78
2022/06/06 12:17:45;;;;;;;36.30;34.38;;;;;;;22.67;48.00;101259.78;5099546;28;20503;-76
2022/06/06 12:20:22;;;;;;;37.75;35.80;;;;;;;22.66;48.26;101256.22;5099145;28;20082;-78
2022/06/06 12:23:06;;;;;;;35.95;34.15;;;;;;;22.68;47.92;101259.50;5105368;28;20070;-77
2022/06/06 12:25:59;;;;;;;35.03;33.13;;;;;;;22.68;48.19;101255.94;5098643;28;20027;-77
2022/06/06 12:29:05;;;;;;;35.55;33.65;;;;;;;22.67;48.07;101257.84;5096504;28;20035;-77
2022/06/06 12:31:53;;;;;;;36.05;34.15;;;;;;;22.66;48.34;101253.47;5096343;28;20024;-77
2022/06/06 12:34:27;;;;;;;36.03;34.00;;;;;;;22.68;48.71;101253.19;5093971;28;20032;-77